Nearby METAR Reports

 

RPLL - Ninoy Aquino Int, Philippines
Distance from station: S 15km
Updated: 10/26/2020 5:00am
Light rain, Overcast
Light rain, Overcast
 Wind from NNE
Wind: NNE 22 km/h
Temperature: 25°C
Dew Point: 24°C
Humidity: 94%
Barometer: 1000 hPa
Summary: Light rain
Clouds: Overcast
Visibility: 9 km
Cloud details: Partly cloudy 610 m
Overcast 2438 m
2020/10/25 21:00 RPLL 252100Z 02012KT 9000 -RA SCT020 OVC080 25/24 Q1000 TEMPO 6000 RA RMK A2953
RPLC - Angeles/Pampanga, Philippines
Distance from station: NW 71km
Updated: 10/26/2020 5:00am
Light rain, Overcast
Light rain, Overcast
 Wind from N
Wind: N 33 km/h
Temperature: 26°C
Dew Point: 24°C
Humidity: 89%
Barometer: 1003 hPa
Summary: Light rain
Clouds: Overcast
Visibility: 7 km
Cloud details: Partly cloudy 610 m
Overcast 2743 m
2020/10/25 21:00 RPLC 252100Z 01018KT 7000 -RA SCT020 OVC090 26/24 Q1003 NOSIG RMK A2962
 
RPLB - Olongapo/Subic, Philippines
Distance from station: WNW 78km
Updated: 10/26/2020 5:00am
Light rain, Overcast
Light rain, Overcast
 Wind from NNE
Wind: NNE 11 km/h
Temperature: 25°C
Dew Point: 23°C
Humidity: 89%
Barometer: 1001 hPa
Summary: Light rain
Clouds: Overcast
Visibility: 9 km
Cloud details: Partly cloudy 549 m
Overcast 2134 m
2020/10/25 21:00 RPLB 252100Z 02006KT 340V060 9000 -RA SCT018 OVC070 25/23 Q1001 RMK A2956
RPMR - Romblon/Tablas I, Philippines
Distance from station: SSE 270km
Updated: 10/25/2020 5:00pm
NOT Current
Overcast
Overcast
 Wind from SSE
Wind: SSE 4 km/h
Temperature: 25°C
Dew Point: 23°C
Humidity: 89%
Barometer: 1010 hPa
Clouds: Overcast
Visibility: 10 km
Cloud details: Few Clouds 549 m
Overcast 2438 m
2020/10/25 09:00 RPMR 250900Z 16002KT 9999 FEW018 OVC080 25/23 Q1010 RMK A2983 VCSH N NE E NW
 
RPLI - Laoag Intl(Ph-Ar, Philippines
Distance from station: N 394km
Updated: 10/26/2020 5:00am
Mostly cloudy
Mostly cloudy
 Wind from NNE
Wind: NNE 22 km/h
Temperature: 27°C
Heat Index: 30°C
Dew Point: 23°C
Humidity: 79%
Barometer: 1005 hPa
Clouds: Mostly cloudy
Visibility: 10 km
Cloud details: Few Clouds 549 m
Mostly cloudy 2743 m
2020/10/25 21:00 RPLI 252100Z 03012KT 9999 FEW018 BKN090 27/23 Q1005 NOSIG RMK A2968
RPVM - Mactan-Cebu, Philippines
Distance from station: SE 582km
Updated: 10/26/2020 5:00am
Overcast
Overcast
 Wind from SSW
Wind: SSW 20 km/h
Temperature: 27°C
Heat Index: 30°C
Dew Point: 23°C
Humidity: 79%
Barometer: 1006 hPa
Clouds: Overcast
Visibility: 10 km
Cloud details: Few Clouds 610 m
Overcast 2743 m
2020/10/25 21:00 RPVM 252100Z 20011KT 9999 FEW020 OVC090 27/23 Q1006 RMK A2971
 
RPVP - Puerto Princesa, Philippines
Distance from station: SSW 598km
Updated: 10/26/2020 5:00am
Light rain, Overcast
Light rain, Overcast
 Wind from W
Wind: W 7 km/h
Temperature: 25°C
Dew Point: 24°C
Humidity: 94%
Barometer: 1004 hPa
Summary: Light rain
Clouds: Overcast
Visibility: 10 km
Cloud details: Partly cloudy 579 m
Overcast 2438 m
2020/10/25 21:00 RPVP 252100Z 27004KT 9999 -RA SCT019 OVC080 25/24 Q1004 RMK A2965
RPVD - Dumaguete/Negros, Philippines
Distance from station: SSE 643km
Updated: 10/26/2020 5:00am
Light rain, Overcast
Light rain, Overcast
 Wind from W
Wind: W 4 km/h
Temperature: 24°C
Dew Point: 23°C
Humidity: 94%
Barometer: 1005 hPa
Summary: Light rain
Clouds: Overcast
Visibility: 9 km
Cloud details: Partly cloudy 427 m
Overcast 2134 m
2020/10/25 21:00 RPVD 252100Z 27002KT 9000 -RA SCT014 OVC070 24/23 Q1005 RMK A2968
 
RPMZ - Zamboanga (civ/A, Philippines
Distance from station: S 868km
Updated: 10/26/2020 5:00am
Overcast
Overcast
 Wind from W
Wind: W 17 km/h
Temperature: 26°C
Dew Point: 24°C
Humidity: 89%
Barometer: 1008 hPa
Clouds: Overcast
Visibility: 9 km
Cloud details: Partly cloudy 488 m
Overcast 2743 m
2020/10/25 21:00 RPMZ 252100Z 27009KT 9000 SCT016CB OVC090 26/24 Q1008 RMK A2977 CB NW-NE S-SE E
RPMD - Davao/Francisco, Philippines
Distance from station: SSE 980km
Updated: 10/26/2020 5:00am
Mostly cloudy
Mostly cloudy
 Wind from NW
Wind: NW 6 km/h
Temperature: 24°C
Dew Point: 24°C
Humidity: 100%
Barometer: 1007 hPa
Clouds: Mostly cloudy
Visibility: 10 km
Cloud details: Few Clouds 488 m
Mostly cloudy 2743 m
Mostly cloudy 7925 m
2020/10/25 21:00 RPMD 252100Z 32003KT 9999 FEW016 BKN090 BKN260 24/24 Q1007 RMK A2974